Time;durP1;ratioP1;P1;durP2;ratioP2;P2;SDS_P1;SDS_P2;PMS_P1;PMS_P2;Temp;Humidity;BMP_temperature;BMP_pressure;BME280_temperature;BME280_humidity;BME280_pressure;Samples;Min_cycle;Max_cycle;Signal;HPM_P1;HPM_P2
2022/03/27 00:02:22;;;;;;;38.05;23.20;;;256.80;1305.60;;;;;;4990397;28;20092;-77
2022/03/27 00:04:48;;;;;;;37.30;21.48;;;256.80;1305.60;;;;;;4992576;28;20026;-77
2022/03/27 00:07:14;;;;;;;39.92;22.33;;;256.70;1305.60;;;;;;4992093;28;20026;-76
2022/03/27 00:09:40;;;;;;;41.85;21.88;;;256.80;1305.60;;;;;;4990708;28;20031;-77
2022/03/27 00:12:06;;;;;;;42.75;23.00;;;256.80;1305.60;;;;;;5011842;28;20502;-77
2022/03/27 00:14:32;;;;;;;37.30;23.80;;;256.80;1305.60;;;;;;4994023;28;20029;-78
2022/03/27 00:16:57;;;;;;;36.40;23.05;;;256.80;1305.60;;;;;;4994136;28;20505;-77
2022/03/27 00:19:24;;;;;;;37.60;22.58;;;256.70;1305.60;;;;;;4994148;28;20026;-77
2022/03/27 00:21:50;;;;;;;39.70;23.92;;;256.70;1305.60;;;;;;5011920;28;20076;-77
2022/03/27 00:24:17;;;;;;;39.80;23.33;;;256.70;1305.60;;;;;;4994187;28;20483;-78
2022/03/27 00:26:42;;;;;;;45.75;23.98;;;256.60;1305.60;;;;;;4994287;28;20056;-76
2022/03/27 00:29:09;;;;;;;40.03;24.17;;;256.60;1305.60;;;;;;5011715;28;20104;-77
2022/03/27 00:31:38;;;;;;;43.53;24.88;;;256.60;1305.60;;;;;;5011884;28;20030;-76
2022/03/27 00:34:05;;;;;;;36.90;26.60;;;256.50;1305.60;;;;;;4993924;28;20038;-77
2022/03/27 00:36:31;;;;;;;43.60;24.52;;;256.60;1305.60;;;;;;5011196;28;20092;-77
2022/03/27 00:38:57;;;;;;;42.08;25.48;;;256.60;1280.00;;;;;;4994177;28;20057;-76
2022/03/27 00:41:24;;;;;;;39.78;24.55;;;256.60;1280.00;;;;;;4997163;28;20033;-77
2022/03/27 00:43:50;;;;;;;50.28;26.38;;;256.60;1280.00;;;;;;4997850;28;20478;-77
2022/03/27 00:46:16;;;;;;;47.63;26.27;;;256.60;1280.00;;;;;;4997411;28;20022;-77
2022/03/27 00:48:42;;;;;;;46.25;24.95;;;256.50;1280.00;;;;;;5015512;28;20025;-77
2022/03/27 00:51:09;;;;;;;44.03;26.50;;;256.50;1280.00;;;;;;5014911;28;20022;-77
2022/03/27 00:53:35;;;;;;;44.88;26.55;;;256.50;1305.60;;;;;;4997673;28;20026;-79
2022/03/27 00:56:00;;;;;;;40.42;24.75;;;256.50;1305.60;;;;;;5015077;28;20080;-77
2022/03/27 00:58:26;;;;;;;39.78;25.75;;;256.40;1305.60;;;;;;4996779;28;20026;-77
2022/03/27 01:01:24;;;;;;;43.50;25.65;;;256.40;1305.60;;;;;;4997441;28;20022;-78
2022/03/27 01:03:53;;;;;;;;;;;256.40;1305.60;;;;;;4997590;28;20057;-78
2022/03/27 01:06:41;;;;;;;49.75;27.02;;;256.30;1305.60;;;;;;4997057;28;19906;-80
2022/03/27 01:11:56;;;;;;;38.50;25.42;;;256.20;1305.60;;;;;;5014928;28;20057;-76
2022/03/27 01:14:32;;;;;;;44.30;27.05;;;256.20;1331.20;;;;;;5014530;28;20022;-77
2022/03/27 01:17:08;;;;;;;44.53;26.52;;;256.30;1305.60;;;;;;5014782;28;20018;-77
2022/03/27 01:19:34;;;;;;;44.10;25.85;;;256.30;1305.60;;;;;;4996531;28;20116;-77
2022/03/27 01:22:00;;;;;;;38.78;24.48;;;256.30;1331.20;;;;;;5014595;28;20557;-79
2022/03/27 01:24:27;;;;;;;44.88;24.40;;;256.30;1331.20;;;;;;5014592;28;20026;-77
2022/03/27 01:26:53;;;;;;;46.97;26.25;;;256.20;1331.20;;;;;;5014229;28;20022;-79
2022/03/27 01:29:19;;;;;;;49.60;25.02;;;256.20;1331.20;;;;;;5013332;28;20033;-77
2022/03/27 01:31:47;;;;;;;44.88;25.58;;;256.20;1331.20;;;;;;5014264;28;20029;-76
2022/03/27 01:34:14;;;;;;;47.50;23.98;;;256.20;1331.20;;;;;;5014447;28;20045;-76
2022/03/27 01:36:40;;;;;;;44.65;24.08;;;256.20;1331.20;;;;;;5014193;28;20029;-79
2022/03/27 01:39:13;;;;;;;41.53;25.55;;;256.20;1331.20;;;;;;5014072;28;20756;-77
2022/03/27 01:41:40;;;;;;;39.40;25.05;;;256.20;1331.20;;;;;;4996605;28;20045;-80
2022/03/27 01:44:08;;;;;;;43.78;25.40;;;256.20;1331.20;;;;;;4996326;28;20026;-78
2022/03/27 01:46:38;;;;;;;39.97;25.33;;;256.20;1331.20;;;;;;4996826;28;20025;-78
2022/03/27 01:49:07;;;;;;;44.55;26.85;;;256.10;1331.20;;;;;;5013950;28;20030;-80
2022/03/27 01:51:33;;;;;;;40.70;23.90;;;256.10;1331.20;;;;;;4995431;28;20076;-81
2022/03/27 01:53:59;;;;;;;43.00;24.60;;;256.10;1331.20;;;;;;4996019;28;20061;-83
2022/03/27 01:56:25;;;;;;;43.08;26.48;;;256.10;1356.80;;;;;;5014364;28;20502;-84
2022/03/27 01:58:51;;;;;;;49.83;27.42;;;256.10;1356.80;;;;;;4995776;28;20045;-80
2022/03/27 02:01:19;;;;;;;40.85;26.95;;;256.10;1356.80;;;;;;5014101;28;20486;-78
2022/03/27 02:03:46;;;;;;;50.20;30.02;;;256.10;1356.80;;;;;;4995891;28;20038;-78
2022/03/27 02:06:12;;;;;;;53.38;29.40;;;256.10;1356.80;;;;;;4995932;28;20395;-79
2022/03/27 02:08:39;;;;;;;52.65;30.23;;;256.10;1356.80;;;;;;4996345;28;20026;-78
2022/03/27 02:11:06;;;;;;;48.67;27.83;;;256.10;1356.80;;;;;;4995798;28;20049;-78
2022/03/27 02:13:32;;;;;;;49.97;29.02;;;256.10;1356.80;;;;;;5013896;28;20057;-79
2022/03/27 02:15:58;;;;;;;46.25;27.88;;;256.10;1356.80;;;;;;4995841;28;20053;-79
2022/03/27 02:18:29;;;;;;;52.55;29.63;;;256.10;1356.80;;;;;;4996069;28;20032;-82
2022/03/27 02:20:55;;;;;;;49.47;28.50;;;256.10;1356.80;;;;;;4995667;28;20061;-80
2022/03/27 02:23:25;;;;;;;50.83;29.30;;;256.10;1356.80;;;;;;4996014;28;20026;-80
2022/03/27 02:25:52;;;;;;;49.45;28.63;;;256.10;1356.80;;;;;;5013329;28;20022;-79
2022/03/27 02:28:18;;;;;;;47.75;29.58;;;256.10;1356.80;;;;;;5013298;28;20105;-79
2022/03/27 02:30:45;;;;;;;42.03;26.70;;;256.10;1382.40;;;;;;5013648;28;20049;-79
2022/03/27 02:33:11;;;;;;;45.88;25.42;;;256.10;1382.40;;;;;;4995692;28;20029;-80
2022/03/27 02:35:37;;;;;;;46.75;25.63;;;256.10;1356.80;;;;;;4995737;28;20030;-78
2022/03/27 02:38:07;;;;;;;51.10;27.05;;;256.10;1382.40;;;;;;4995215;28;20052;-79
2022/03/27 02:40:35;;;;;;;45.35;26.20;;;256.10;1382.40;;;;;;4995497;28;20061;-80
2022/03/27 02:43:01;;;;;;;44.58;25.88;;;256.10;1408.00;;;;;;4994840;28;20107;-79
2022/03/27 02:45:27;;;;;;;40.88;25.58;;;256.00;1382.40;;;;;;4995163;28;20418;-79
2022/03/27 02:47:54;;;;;;;41.88;25.08;;;256.00;1382.40;;;;;;4994733;28;20022;-79
2022/03/27 02:50:20;;;;;;;48.08;24.95;;;231.30;1408.00;;;;;;4994522;28;20032;-79
2022/03/27 02:52:46;;;;;;;47.53;26.17;;;256.00;1408.00;;;;;;4993862;28;20034;-82
2022/03/27 02:55:12;;;;;;;45.55;25.48;;;231.30;1408.00;;;;;;4993961;28;20565;-81
2022/03/27 02:57:39;;;;;;;45.88;25.70;;;256.00;1382.40;;;;;;5012311;28;20104;-80
2022/03/27 03:00:08;;;;;;;41.00;23.50;;;256.00;1382.40;;;;;;5012692;28;20030;-81
2022/03/27 03:02:34;;;;;;;53.80;25.38;;;256.00;1382.40;;;;;;4995329;28;20057;-83
2022/03/27 03:05:01;;;;;;;42.58;25.10;;;256.20;1382.40;;;;;;4994982;28;20029;-80
2022/03/27 03:07:27;;;;;;;40.90;22.98;;;256.00;1382.40;;;;;;5012363;28;20034;-78
2022/03/27 03:09:54;;;;;;;40.05;21.48;;;231.30;1382.40;;;;;;5012294;28;20033;-79
2022/03/27 03:12:20;;;;;;;38.10;23.13;;;256.00;1382.40;;;;;;5012398;28;20026;-79
2022/03/27 03:14:46;;;;;;;40.45;24.67;;;256.00;1382.40;;;;;;4995029;28;20029;-78
2022/03/27 03:17:12;;;;;;;48.00;24.20;;;256.00;1382.40;;;;;;4994680;28;20510;-78
2022/03/27 03:19:39;;;;;;;38.97;22.65;;;256.00;1408.00;;;;;;4994930;28;20483;-78
2022/03/27 03:22:07;;;;;;;40.75;22.98;;;231.30;1382.40;;;;;;4994650;28;20057;-77
2022/03/27 03:24:33;;;;;;;43.28;23.33;;;231.30;1408.00;;;;;;5012690;28;20030;-78
2022/03/27 03:26:59;;;;;;;38.75;22.52;;;231.30;1408.00;;;;;;5012225;28;20030;-78
2022/03/27 03:29:25;;;;;;;42.38;23.83;;;231.20;1408.00;;;;;;4994449;28;20121;-79
2022/03/27 03:31:51;;;;;;;39.17;22.95;;;231.20;1408.00;;;;;;4994394;28;20077;-79
2022/03/27 03:34:16;;;;;;;41.63;23.58;;;231.20;1408.00;;;;;;4994820;28;20037;-82
2022/03/27 03:36:43;;;;;;;36.17;20.55;;;231.20;1408.00;;;;;;4994692;28;20038;-82
2022/03/27 03:39:09;;;;;;;33.95;21.40;;;231.20;1408.00;;;;;;5012192;28;20470;-80
2022/03/27 03:41:36;;;;;;;36.58;21.08;;;231.20;1408.00;;;;;;4994707;28;20088;-83
2022/03/27 03:44:01;;;;;;;35.72;21.27;;;231.30;1408.00;;;;;;4994633;28;20069;-80
2022/03/27 03:46:27;;;;;;;41.72;23.67;;;231.20;1408.00;;;;;;4995122;28;20075;-80
2022/03/27 03:48:53;;;;;;;39.90;23.13;;;231.20;1408.00;;;;;;4994433;28;20105;-80
2022/03/27 03:51:19;;;;;;;39.67;23.05;;;231.10;1408.00;;;;;;4994629;28;20433;-80
2022/03/27 03:53:45;;;;;;;38.88;23.15;;;231.00;1408.00;;;;;;5012045;28;20022;-77
2022/03/27 03:56:11;;;;;;;44.30;23.85;;;231.00;1408.00;;;;;;4994688;28;20426;-78
2022/03/27 03:58:37;;;;;;;40.25;21.10;;;231.00;1408.00;;;;;;5011909;28;20037;-78
2022/03/27 04:01:03;;;;;;;37.20;21.65;;;231.00;1408.00;;;;;;4994626;28;20022;-77
2022/03/27 04:03:30;;;;;;;38.55;23.30;;;231.00;1433.60;;;;;;4993984;28;20030;-78
2022/03/27 04:05:55;;;;;;;40.88;21.60;;;231.00;1408.00;;;;;;4994135;28;20071;-77
2022/03/27 04:08:21;;;;;;;45.47;24.85;;;231.00;1408.00;;;;;;5012114;28;20026;-78
2022/03/27 04:10:47;;;;;;;43.65;23.42;;;231.10;1408.00;;;;;;4993992;28;20046;-78
2022/03/27 04:13:13;;;;;;;38.45;22.30;;;231.00;1408.00;;;;;;4994537;28;20031;-79
2022/03/27 04:15:39;;;;;;;41.35;24.33;;;231.00;1408.00;;;;;;5014077;28;20022;-79
2022/03/27 04:18:06;;;;;;;42.97;23.83;;;231.00;1433.60;;;;;;4998457;28;20038;-79
2022/03/27 04:20:32;;;;;;;36.55;21.27;;;231.10;1433.60;;;;;;4997968;28;20045;-78
2022/03/27 04:22:58;;;;;;;37.22;22.02;;;231.20;1433.60;;;;;;4998138;28;20109;-77
2022/03/27 04:25:24;;;;;;;41.28;23.10;;;231.00;1433.60;;;;;;4997926;28;20056;-79
2022/03/27 04:27:51;;;;;;;37.28;22.50;;;231.00;1433.60;;;;;;5015778;28;20483;-78
2022/03/27 04:30:17;;;;;;;35.10;20.83;;;230.90;1433.60;;;;;;4998014;28;20088;-78
2022/03/27 04:32:43;;;;;;;44.47;23.23;;;231.00;1433.60;;;;;;4997630;28;20471;-78
2022/03/27 04:35:10;;;;;;;43.13;24.15;;;230.90;1433.60;;;;;;4997782;28;20042;-79
2022/03/27 04:37:43;;;;;;;36.72;22.65;;;230.90;1433.60;;;;;;4997730;28;20030;-77
2022/03/27 04:40:10;;;;;;;37.30;21.92;;;231.00;1433.60;;;;;;5015490;28;20038;-78
2022/03/27 04:42:36;;;;;;;34.72;20.63;;;231.00;1433.60;;;;;;4997496;28;20478;-79
2022/03/27 04:45:02;;;;;;;38.00;22.75;;;231.00;1433.60;;;;;;5015476;28;20101;-79
2022/03/27 04:47:28;;;;;;;44.55;23.30;;;231.20;1433.60;;;;;;5015104;28;20049;-79
2022/03/27 04:49:54;;;;;;;35.15;22.33;;;231.00;1433.60;;;;;;5015057;28;20471;-77
2022/03/27 04:52:19;;;;;;;38.80;20.30;;;230.90;1433.60;;;;;;5015371;28;20037;-80
2022/03/27 04:54:45;;;;;;;38.25;22.50;;;230.90;1433.60;;;;;;4997511;28;20025;-78
2022/03/27 04:57:11;;;;;;;34.15;21.95;;;230.90;1459.20;;;;;;4997545;28;20660;-77
2022/03/27 04:59:37;;;;;;;37.58;21.77;;;230.90;1459.20;;;;;;4997240;28;20030;-78
2022/03/27 05:02:03;;;;;;;37.35;22.23;;;230.90;1459.20;;;;;;4997275;28;20041;-78
2022/03/27 05:04:28;;;;;;;37.42;21.50;;;231.00;1459.20;;;;;;5014646;28;20088;-78
2022/03/27 05:06:54;;;;;;;37.40;20.73;;;230.90;1459.20;;;;;;4996908;28;20422;-78
2022/03/27 05:09:20;;;;;;;35.83;20.38;;;231.00;1459.20;;;;;;4995984;28;20553;-79
2022/03/27 05:11:49;;;;;;;36.58;22.25;;;231.00;1459.20;;;;;;4997345;28;20057;-78
2022/03/27 05:14:14;;;;;;;35.17;19.75;;;231.00;1484.80;;;;;;5014524;28;20482;-77
2022/03/27 05:16:40;;;;;;;37.17;20.80;;;231.10;1484.80;;;;;;5003926;28;20062;-77
2022/03/27 05:19:06;;;;;;;36.90;20.35;;;231.10;1484.80;;;;;;5014839;28;20026;-78
2022/03/27 05:21:35;;;;;;;36.03;20.10;;;231.10;1484.80;;;;;;4996798;28;20113;-77
2022/03/27 05:24:01;;;;;;;35.38;21.08;;;231.20;1484.80;;;;;;5014513;28;20101;-77
2022/03/27 05:26:27;;;;;;;36.78;19.63;;;231.20;1484.80;;;;;;4992220;28;20121;-77
2022/03/27 05:28:54;;;;;;;38.85;22.02;;;231.30;1484.80;;;;;;5007658;28;20022;-77
2022/03/27 05:31:20;;;;;;;32.05;19.98;;;231.30;1484.80;;;;;;5014444;28;20026;-78
2022/03/27 05:33:47;;;;;;;35.35;20.77;;;231.30;1484.80;;;;;;5014715;28;20474;-79
2022/03/27 05:36:13;;;;;;;31.88;20.17;;;231.30;1484.80;;;;;;5013957;28;20030;-78
2022/03/27 05:38:41;;;;;;;36.75;20.00;;;256.00;1510.40;;;;;;4986547;28;20033;-79
2022/03/27 05:41:08;;;;;;;37.20;19.92;;;256.00;1510.40;;;;;;4994332;28;20101;-78
2022/03/27 05:43:34;;;;;;;31.00;17.90;;;256.10;1510.40;;;;;;4993261;28;20660;-78
2022/03/27 05:46:00;;;;;;;32.95;19.35;;;256.10;1510.40;;;;;;4994806;28;20034;-78
2022/03/27 05:48:26;;;;;;;34.35;19.38;;;256.20;1510.40;;;;;;5012972;28;20029;-78
2022/03/27 05:50:52;;;;;;;30.92;18.80;;;256.20;1510.40;;;;;;4996795;28;20076;-79
2022/03/27 05:53:18;;;;;;;41.42;18.15;;;256.30;1536.00;;;;;;4996269;28;20471;-78
2022/03/27 05:55:44;;;;;;;31.73;18.88;;;256.40;1536.00;;;;;;4996391;28;20033;-78
2022/03/27 05:58:10;;;;;;;30.42;16.17;;;256.50;1536.00;;;;;;5013685;28;20060;-78
2022/03/27 06:00:36;;;;;;;38.28;18.20;;;256.50;1536.00;;;;;;4996658;28;20030;-78
2022/03/27 06:03:02;;;;;;;34.55;17.63;;;256.70;1536.00;;;;;;5013676;28;20026;-78
2022/03/27 06:05:27;;;;;;;40.55;19.63;;;256.80;1561.60;;;;;;5012126;28;20034;-78
2022/03/27 06:07:58;;;;;;;33.75;19.40;;;256.90;1561.60;;;;;;5013515;28;20033;-80
2022/03/27 06:10:31;;;;;;;29.30;15.95;;;281.60;1587.20;;;;;;4995663;28;20518;-80
2022/03/27 06:13:01;;;;;;;29.38;17.52;;;281.70;1612.80;;;;;;4996125;28;20052;-80
2022/03/27 06:15:28;;;;;;;25.88;16.95;;;281.80;1612.80;;;;;;4995645;28;20034;-79
2022/03/27 06:17:55;;;;;;;27.60;15.88;;;281.90;1612.80;;;;;;4995966;28;20049;-80
2022/03/27 06:20:23;;;;;;;28.92;16.00;;;282.00;1638.40;;;;;;4995013;28;20036;-79
2022/03/27 06:22:50;;;;;;;25.58;15.77;;;282.20;1638.40;;;;;;4990995;28;20042;-78
2022/03/27 06:25:18;;;;;;;28.40;14.20;;;282.30;1638.40;;;;;;4992989;28;20042;-81
2022/03/27 06:27:45;;;;;;;25.60;14.77;;;282.30;1638.40;;;;;;4993315;28;20451;-80
2022/03/27 06:30:13;;;;;;;25.48;15.07;;;282.40;1612.80;;;;;;5003765;28;20022;-83
2022/03/27 06:32:39;;;;;;;24.05;13.48;;;282.50;1638.40;;;;;;5002707;28;20026;-83
2022/03/27 06:35:06;;;;;;;22.95;15.32;;;307.20;1664.00;;;;;;4982632;28;20049;-81
2022/03/27 06:37:32;;;;;;;24.00;14.63;;;307.40;1638.40;;;;;;4986481;28;20153;-81
2022/03/27 06:39:59;;;;;;;21.48;14.30;;;307.40;1638.40;;;;;;5000744;28;20030;-81
2022/03/27 06:42:26;;;;;;;25.73;16.45;;;307.50;1612.80;;;;;;5003414;28;20029;-79
2022/03/27 06:44:53;;;;;;;27.83;14.18;;;307.50;1612.80;;;;;;4981428;28;20026;-79
2022/03/27 06:47:20;;;;;;;25.92;14.10;;;307.70;1612.80;;;;;;4982938;28;20026;-82
2022/03/27 06:49:47;;;;;;;24.95;14.65;;;307.80;1612.80;;;;;;5002171;28;20030;-80
2022/03/27 06:52:14;;;;;;;25.33;14.82;;;307.90;1612.80;;;;;;5002698;28;20471;-81
2022/03/27 06:54:40;;;;;;;31.73;14.32;;;308.00;1561.60;;;;;;4998304;28;20033;-81
2022/03/27 06:57:05;;;;;;;24.65;14.50;;;332.80;1587.20;;;;;;5000187;28;20030;-81
2022/03/27 07:03:01;;;;;;;23.48;14.88;;;332.80;1587.20;;;;;;5003915;28;20030;-82
2022/03/27 07:05:03;;;;;;;24.85;13.02;;;333.20;1587.20;;;;;;5005511;28;20025;-80
2022/03/27 07:07:29;;;;;;;25.23;15.52;;;333.20;1587.20;;;;;;4986858;28;20030;-80
2022/03/27 07:09:55;;;;;;;22.33;14.05;;;333.50;1561.60;;;;;;5003687;28;20525;-80
2022/03/27 07:12:21;;;;;;;22.92;12.95;;;333.60;1536.00;;;;;;4998956;28;20041;-80
2022/03/27 07:14:46;;;;;;;22.13;13.75;;;358.40;1510.40;;;;;;4983486;28;20034;-80
2022/03/27 07:17:17;;;;;;;25.33;15.05;;;358.60;1510.40;;;;;;4987131;28;20034;-79
2022/03/27 07:19:47;;;;;;;26.88;12.88;;;358.80;1510.40;;;;;;4982194;28;20029;-80
2022/03/27 07:22:13;;;;;;;21.65;13.18;;;358.90;1510.40;;;;;;4982768;28;20053;-79
2022/03/27 07:24:42;;;;;;;16.33;11.88;;;359.00;1510.40;;;;;;5000385;28;20029;-82
2022/03/27 07:27:08;;;;;;;20.70;11.60;;;359.20;1484.80;;;;;;4985752;28;20056;-80
2022/03/27 07:29:37;;;;;;;19.48;11.85;;;384.10;1484.80;;;;;;4982147;28;20050;-80
2022/03/27 07:32:06;;;;;;;18.88;11.57;;;384.40;1459.20;;;;;;4984777;28;20515;-79
2022/03/27 07:34:35;;;;;;;21.10;12.55;;;384.40;1433.60;;;;;;5001011;28;20111;-78
2022/03/27 07:37:03;;;;;;;20.17;10.90;;;384.40;1433.60;;;;;;4979745;28;20077;-79
2022/03/27 07:39:30;;;;;;;19.17;12.32;;;384.60;1408.00;;;;;;4983135;28;20472;-78
2022/03/27 07:41:55;;;;;;;15.73;10.85;;;384.80;1408.00;;;;;;5000278;28;20038;-79
2022/03/27 07:44:21;;;;;;;23.45;12.10;;;409.80;1433.60;;;;;;5000049;28;20033;-79
2022/03/27 07:46:52;;;;;;;17.83;10.88;;;410.10;1408.00;;;;;;4986949;28;20091;-78
2022/03/27 07:49:19;;;;;;;15.35;10.40;;;409.90;1408.00;;;;;;4998148;28;20483;-78
2022/03/27 07:51:45;;;;;;;18.77;10.30;;;410.10;1408.00;;;;;;4985846;28;20038;-79
2022/03/27 07:54:11;;;;;;;13.35;9.02;;;410.20;1408.00;;;;;;4983056;28;20083;-77
2022/03/27 07:56:36;;;;;;;12.63;9.45;;;410.10;1382.40;;;;;;4996663;28;20152;-80
2022/03/27 07:59:02;;;;;;;17.70;9.35;;;410.10;1382.40;;;;;;5000710;28;20076;-74
2022/03/27 08:01:28;;;;;;;14.48;9.27;;;410.30;1382.40;;;;;;4992451;28;20033;-78
2022/03/27 08:03:56;;;;;;;16.42;10.07;;;410.40;1356.80;;;;;;4980500;28;20029;-76
2022/03/27 08:06:23;;;;;;;15.02;9.05;;;435.20;1356.80;;;;;;4998905;28;20019;-76
2022/03/27 08:08:49;;;;;;;15.80;9.60;;;435.50;1356.80;;;;;;5003169;28;20101;-76
2022/03/27 08:11:15;;;;;;;14.23;8.40;;;435.90;1331.20;;;;;;4986990;28;20120;-78
2022/03/27 08:13:40;;;;;;;15.07;8.93;;;460.80;1331.20;;;;;;4985546;28;20053;-77
2022/03/27 08:16:06;;;;;;;13.55;8.52;;;460.80;1331.20;;;;;;4983791;28;20045;-77
2022/03/27 08:18:33;;;;;;;12.18;8.88;;;460.80;1331.20;;;;;;4990342;28;20041;-77
2022/03/27 08:20:59;;;;;;;14.80;10.15;;;461.00;1305.60;;;;;;4988002;28;20038;-80
2022/03/27 08:23:25;;;;;;;15.65;10.45;;;461.20;1305.60;;;;;;4996588;28;20509;-77
2022/03/27 08:28:35;;;;;;;13.52;8.00;;;461.70;1305.60;;;;;;4997668;28;20157;-78
2022/03/27 08:31:02;;;;;;;14.70;9.88;;;461.70;1305.60;;;;;;4997537;28;20022;-76
2022/03/27 08:33:28;;;;;;;15.93;7.85;;;486.40;1305.60;;;;;;4999892;28;20505;-77
2022/03/27 08:35:54;;;;;;;11.02;7.93;;;486.60;1280.00;;;;;;4984196;28;20038;-81
2022/03/27 08:38:20;;;;;;;11.05;8.48;;;486.70;1280.00;;;;;;5006909;28;20474;-80
2022/03/27 08:40:47;;;;;;;14.15;8.07;;;487.10;1254.40;;;;;;4985754;28;20087;-78
2022/03/27 08:43:14;;;;;;;21.20;9.55;;;512.00;1254.40;;;;;;4988262;28;20030;-78
2022/03/27 08:45:41;;;;;;;15.85;8.25;;;512.00;1254.40;;;;;;4980349;28;20137;-79
2022/03/27 08:48:08;;;;;;;11.38;7.85;;;487.10;1280.00;;;;;;5005527;28;20042;-79
2022/03/27 08:50:58;;;;;;;15.93;9.93;;;512.20;1228.80;;;;;;4985640;28;20062;-80
2022/03/27 08:53:47;;;;;;;23.42;9.68;;;512.70;1203.20;;;;;;4983449;28;20483;-77
2022/03/27 08:56:15;;;;;;;17.35;8.63;;;512.90;1203.20;;;;;;4993692;28;20034;-77
2022/03/27 08:58:42;;;;;;;14.25;7.30;;;512.90;1203.20;;;;;;5011191;28;20034;-77
2022/03/27 09:01:08;;;;;;;9.70;6.35;;;537.70;1228.80;;;;;;4994572;28;20056;-77
2022/03/27 09:03:35;;;;;;;13.10;7.63;;;538.10;1203.20;;;;;;4996957;28;20430;-77
2022/03/27 09:06:01;;;;;;;13.68;5.80;;;563.30;1203.20;;;;;;5014265;28;20053;-78
2022/03/27 09:08:30;;;;;;;10.32;5.70;;;563.30;1177.60;;;;;;5000426;28;20014;-79
2022/03/27 09:10:56;;;;;;;8.85;5.90;;;538.50;1203.20;;;;;;4990275;28;20050;-77
2022/03/27 09:13:23;;;;;;;9.82;6.07;;;538.20;1203.20;;;;;;4993819;28;20049;-77
2022/03/27 09:16:01;;;;;;;9.23;6.70;;;563.20;1203.20;;;;;;5003272;28;20034;-78
2022/03/27 09:18:53;;;;;;;7.20;5.35;;;563.20;1203.20;;;;;;5009528;28;20033;-78
2022/03/27 09:21:20;;;;;;;8.15;6.10;;;538.00;1228.80;;;;;;4991840;28;20029;-77
2022/03/27 09:23:54;;;;;;;12.43;7.63;;;537.90;1228.80;;;;;;5002663;28;20031;-77
2022/03/27 09:26:20;;;;;;;12.90;5.88;;;538.00;1203.20;;;;;;4990111;28;20031;-78
2022/03/27 09:28:52;;;;;;;9.95;6.95;;;538.00;1228.80;;;;;;5004942;28;20548;-78
2022/03/27 09:31:19;;;;;;;16.17;6.45;;;538.00;1203.20;;;;;;5005635;28;20030;-78
2022/03/27 09:33:54;;;;;;;6.40;4.40;;;538.00;1228.80;;;;;;5000760;28;20042;-78
2022/03/27 09:36:24;;;;;;;5.68;4.50;;;512.80;1203.20;;;;;;5002776;28;20031;-78
2022/03/27 09:39:15;;;;;;;10.00;5.97;;;512.60;1228.80;;;;;;5009584;28;20097;-78
2022/03/27 09:42:01;;;;;;;12.90;7.45;;;512.80;1203.20;;;;;;5010604;28;20030;-77
2022/03/27 09:44:31;;;;;;;10.48;6.72;;;512.70;1228.80;;;;;;4999497;28;20360;-77
2022/03/27 09:47:05;;;;;;;9.13;6.07;;;512.70;1228.80;;;;;;5012224;28;20426;-78
2022/03/27 09:49:31;;;;;;;11.93;6.57;;;537.60;1254.40;;;;;;4988905;28;20045;-78
2022/03/27 09:52:01;;;;;;;11.82;6.75;;;512.70;1228.80;;;;;;5000697;28;20035;-77
2022/03/27 09:54:43;;;;;;;8.95;5.78;;;537.60;1228.80;;;;;;5011002;28;20031;-77
2022/03/27 09:57:20;;;;;;;8.55;6.05;;;537.90;1228.80;;;;;;4986009;28;20030;-78
2022/03/27 09:59:46;;;;;;;11.65;6.85;;;538.00;1228.80;;;;;;5001979;28;20037;-78
2022/03/27 10:02:27;;;;;;;11.85;7.80;;;538.10;1203.20;;;;;;4985235;28;20035;-78
2022/03/27 10:04:53;;;;;;;13.80;8.73;;;538.30;1177.60;;;;;;4989270;28;20405;-79
2022/03/27 10:07:19;;;;;;;8.20;6.20;;;563.30;1203.20;;;;;;5000259;28;20037;-79
2022/03/27 10:09:45;;;;;;;9.45;6.25;;;563.60;1177.60;;;;;;4990248;28;20435;-79
2022/03/27 10:12:12;;;;;;;7.80;5.60;;;563.70;1177.60;;;;;;4986818;28;20037;-79
2022/03/27 10:14:41;;;;;;;6.90;5.10;;;563.40;1177.60;;;;;;5007012;28;20025;-79
2022/03/27 10:17:10;;;;;;;7.25;4.90;;;563.40;1177.60;;;;;;4981673;28;20487;-78
2022/03/27 10:19:49;;;;;;;8.27;5.00;;;538.50;1126.40;;;;;;5001504;28;20026;-79
2022/03/27 10:22:23;;;;;;;14.77;6.43;;;563.20;1152.00;;;;;;4991263;28;20499;-78
2022/03/27 10:24:55;;;;;;;8.07;5.10;;;538.10;1126.40;;;;;;4987667;28;20026;-78
2022/03/27 10:27:21;;;;;;;6.95;4.70;;;563.20;1152.00;;;;;;4995047;28;20030;-78
2022/03/27 10:29:47;;;;;;;7.78;5.15;;;563.40;1126.40;;;;;;4994386;28;20034;-79
2022/03/27 10:32:13;;;;;;;7.57;4.60;;;563.60;1126.40;;;;;;4991515;28;20034;-78
2022/03/27 10:35:21;;;;;;;9.93;5.30;;;563.60;1126.40;;;;;;4992721;28;20026;-78
2022/03/27 10:37:53;;;;;;;;;;;563.70;1126.40;;;;;;4982077;28;20030;-78
2022/03/27 10:40:40;;;;;;;11.90;4.75;;;563.60;1126.40;;;;;;4993321;28;20404;-78
2022/03/27 10:43:56;;;;;;;7.85;4.93;;;564.00;1075.20;;;;;;4975549;28;20049;-78
2022/03/27 10:46:26;;;;;;;9.00;4.53;;;563.70;1100.80;;;;;;4936086;29;20106;-78
2022/03/27 10:49:08;;;;;;;7.57;4.65;;;588.90;1075.20;;;;;;4964936;28;20389;-78
2022/03/27 10:51:36;;;;;;;5.43;3.95;;;589.00;1049.60;;;;;;4954718;28;20150;-83
2022/03/27 10:54:08;;;;;;;7.15;4.50;;;589.10;1049.60;;;;;;4971316;28;20106;-79
2022/03/27 10:56:46;;;;;;;7.50;4.43;;;589.10;1024.00;;;;;;4955159;28;20027;-78
2022/03/27 10:59:17;;;;;;;5.90;4.30;;;589.10;1049.60;;;;;;4971511;28;20640;-78
2022/03/27 11:01:45;;;;;;;20.05;12.27;;;588.90;1049.60;;;;;;4955128;28;20081;-78
2022/03/27 11:04:15;;;;;;;5.95;4.10;;;589.20;1024.00;;;;;;4955086;28;20074;-80
2022/03/27 11:06:48;;;;;;;6.25;4.28;;;589.60;998.40;;;;;;4955721;28;20034;-81
2022/03/27 11:09:34;;;;;;;12.40;4.72;;;614.40;998.40;;;;;;4955517;28;20050;-78
2022/03/27 11:12:02;;;;;;;9.67;6.03;;;614.60;998.40;;;;;;4944783;29;20489;-81
2022/03/27 11:15:05;;;;;;;11.85;5.55;;;614.70;998.40;;;;;;4936601;29;20817;-81
2022/03/27 11:17:41;;;;;;;8.75;4.63;;;615.00;998.40;;;;;;4943510;29;20133;-80
2022/03/27 11:20:29;;;;;;;5.90;4.38;;;614.80;998.40;;;;;;4936596;29;20496;-82
2022/03/27 11:22:59;;;;;;;9.20;6.13;;;615.00;1024.00;;;;;;4962723;28;20029;-81
2022/03/27 11:25:38;;;;;;;8.63;5.93;;;640.20;972.80;;;;;;4990097;28;20121;-83
2022/03/27 11:28:06;;;;;;;8.35;5.32;;;640.60;947.20;;;;;;4994523;28;20369;-81
2022/03/27 11:30:47;;;;;;;6.82;4.13;;;640.10;947.20;;;;;;4994713;28;20026;-80
2022/03/27 11:33:16;;;;;;;6.38;4.53;;;614.80;972.80;;;;;;4988705;28;20041;-80
2022/03/27 11:36:01;;;;;;;7.32;4.70;;;614.40;998.40;;;;;;4996535;28;20027;-78
2022/03/27 11:38:35;;;;;;;9.57;5.10;;;615.00;972.80;;;;;;4991437;28;20037;-78
2022/03/27 11:41:22;;;;;;;7.93;5.55;;;614.40;1024.00;;;;;;4992338;28;20039;-86
2022/03/27 11:43:50;;;;;;;7.43;4.55;;;588.80;1049.60;;;;;;5005256;28;20025;-79
2022/03/27 11:46:28;;;;;;;11.95;6.55;;;589.70;1024.00;;;;;;4993998;28;20125;-80
2022/03/27 11:48:59;;;;;;;7.68;5.15;;;615.20;998.40;;;;;;5011445;28;20018;-84
2022/03/27 11:51:26;;;;;;;8.73;4.85;;;640.50;947.20;;;;;;4994149;28;20018;-84
2022/03/27 11:53:54;;;;;;;11.85;5.78;;;640.20;972.80;;;;;;4991214;28;20030;-86
2022/03/27 11:56:20;;;;;;;9.05;5.75;;;640.40;972.80;;;;;;4982468;28;20037;-81
2022/03/27 11:59:06;;;;;;;7.60;5.35;;;665.70;972.80;;;;;;4987095;28;20026;-85
2022/03/27 12:01:32;;;;;;;8.77;5.95;;;640.90;947.20;;;;;;4998638;28;20030;-77
2022/03/27 12:03:59;;;;;;;7.78;4.95;;;640.90;972.80;;;;;;4975207;28;20033;-79
2022/03/27 12:06:29;;;;;;;8.02;5.78;;;665.70;972.80;;;;;;4974828;28;20018;-78
2022/03/27 12:08:56;;;;;;;11.23;5.60;;;666.20;947.20;;;;;;4975032;28;20072;-78
2022/03/27 12:11:25;;;;;;;6.45;5.00;;;666.10;947.20;;;;;;4972239;28;20061;-78
2022/03/27 12:13:51;;;;;;;7.97;5.28;;;666.00;972.80;;;;;;4985103;28;20022;-79
2022/03/27 12:16:20;;;;;;;8.40;5.97;;;666.20;947.20;;;;;;4979200;28;20518;-78
2022/03/27 12:18:49;;;;;;;6.22;4.93;;;666.30;947.20;;;;;;4998526;28;20050;-78
2022/03/27 12:21:20;;;;;;;9.75;6.10;;;691.30;921.60;;;;;;4983496;28;20163;-79
2022/03/27 12:24:02;;;;;;;7.75;4.45;;;665.80;947.20;;;;;;4984842;28;20038;-79